sensor_id;sensor_type;location;lat;lon;timestamp;temperature;humidity
34318;DHT22;20582;52.196;20.952;2023-01-19T06:17:47;3.60;99.90
34318;DHT22;20582;52.196;20.952;2023-01-19T15:11:23;4.20;99.90
34318;DHT22;20582;52.196;20.952;2023-01-19T15:48:08;4.10;99.90
34318;DHT22;20582;52.196;20.952;2023-01-19T15:57:53;4.10;99.90
34318;DHT22;20582;52.196;20.952;2023-01-19T16:00:28;4.10;99.90
34318;DHT22;20582;52.196;20.952;2023-01-19T16:02:54;4.20;99.90
34318;DHT22;20582;52.196;20.952;2023-01-19T16:05:20;4.50;99.90
34318;DHT22;20582;52.196;20.952;2023-01-19T16:15:04;4.10;99.90
34318;DHT22;20582;52.196;20.952;2023-01-19T16:19:56;4.10;99.90
34318;DHT22;20582;52.196;20.952;2023-01-19T16:22:21;4.10;99.90
34318;DHT22;20582;52.196;20.952;2023-01-19T16:24:47;4.00;99.90
34318;DHT22;20582;52.196;20.952;2023-01-19T16:32:05;4.00;99.90
34318;DHT22;20582;52.196;20.952;2023-01-19T16:34:30;4.80;99.90
34318;DHT22;20582;52.196;20.952;2023-01-19T16:36:56;4.00;99.90
34318;DHT22;20582;52.196;20.952;2023-01-19T16:39:21;3.90;99.90
34318;DHT22;20582;52.196;20.952;2023-01-19T16:44:14;4.00;99.90
34318;DHT22;20582;52.196;20.952;2023-01-19T16:46:42;4.90;99.90
34318;DHT22;20582;52.196;20.952;2023-01-19T16:51:39;4.20;99.90
34318;DHT22;20582;52.196;20.952;2023-01-19T16:54:05;3.90;99.90
34318;DHT22;20582;52.196;20.952;2023-01-19T16:56:31;4.30;99.90
34318;DHT22;20582;52.196;20.952;2023-01-19T16:58:57;4.30;99.90
34318;DHT22;20582;52.196;20.952;2023-01-19T17:03:51;4.20;99.90
34318;DHT22;20582;52.196;20.952;2023-01-19T17:06:18;4.20;99.90
34318;DHT22;20582;52.196;20.952;2023-01-19T17:08:45;4.30;99.90
34318;DHT22;20582;52.196;20.952;2023-01-19T17:13:51;4.30;99.90
34318;DHT22;20582;52.196;20.952;2023-01-19T17:16:18;4.40;99.90
34318;DHT22;20582;52.196;20.952;2023-01-19T17:18:44;4.20;99.90
34318;DHT22;20582;52.196;20.952;2023-01-19T17:21:10;4.00;99.90
34318;DHT22;20582;52.196;20.952;2023-01-19T17:23:36;4.20;99.90
34318;DHT22;20582;52.196;20.952;2023-01-19T17:26:02;4.20;99.90
34318;DHT22;20582;52.196;20.952;2023-01-19T17:28:28;4.50;99.90
34318;DHT22;20582;52.196;20.952;2023-01-19T17:33:22;4.20;99.90
34318;DHT22;20582;52.196;20.952;2023-01-19T17:35:49;4.00;99.90
34318;DHT22;20582;52.196;20.952;2023-01-19T17:38:15;4.40;99.90
34318;DHT22;20582;52.196;20.952;2023-01-19T17:40:40;6.20;99.90
34318;DHT22;20582;52.196;20.952;2023-01-19T17:43:06;4.20;99.90
34318;DHT22;20582;52.196;20.952;2023-01-19T17:45:36;4.00;99.90
34318;DHT22;20582;52.196;20.952;2023-01-19T17:48:04;4.70;99.90
34318;DHT22;20582;52.196;20.952;2023-01-19T17:50:31;4.20;99.90
34318;DHT22;20582;52.196;20.952;2023-01-19T17:52:59;4.20;99.90
34318;DHT22;20582;52.196;20.952;2023-01-19T17:55:25;4.80;99.90
34318;DHT22;20582;52.196;20.952;2023-01-19T17:57:50;4.20;99.90
34318;DHT22;20582;52.196;20.952;2023-01-19T18:00:16;3.70;99.90
34318;DHT22;20582;52.196;20.952;2023-01-19T18:02:42;4.20;99.90
34318;DHT22;20582;52.196;20.952;2023-01-19T18:05:08;4.60;99.90
34318;DHT22;20582;52.196;20.952;2023-01-19T18:07:40;4.20;99.90
34318;DHT22;20582;52.196;20.952;2023-01-19T18:10:06;4.30;99.90
34318;DHT22;20582;52.196;20.952;2023-01-19T18:12:32;4.20;99.90
34318;DHT22;20582;52.196;20.952;2023-01-19T18:14:58;4.10;99.90
34318;DHT22;20582;52.196;20.952;2023-01-19T18:17:24;4.40;99.90
34318;DHT22;20582;52.196;20.952;2023-01-19T18:19:49;4.80;99.90
34318;DHT22;20582;52.196;20.952;2023-01-19T18:22:15;4.20;99.90
34318;DHT22;20582;52.196;20.952;2023-01-19T18:24:41;3.80;99.90
34318;DHT22;20582;52.196;20.952;2023-01-19T18:27:09;3.80;99.90
34318;DHT22;20582;52.196;20.952;2023-01-19T18:29:34;4.80;99.90
34318;DHT22;20582;52.196;20.952;2023-01-19T18:32:00;4.00;99.90
34318;DHT22;20582;52.196;20.952;2023-01-19T18:34:26;3.90;99.90
34318;DHT22;20582;52.196;20.952;2023-01-19T18:36:51;4.50;99.90
34318;DHT22;20582;52.196;20.952;2023-01-19T18:39:17;3.90;99.90
34318;DHT22;20582;52.196;20.952;2023-01-19T18:41:42;4.40;99.90
34318;DHT22;20582;52.196;20.952;2023-01-19T18:46:35;3.80;99.90
34318;DHT22;20582;52.196;20.952;2023-01-19T18:49:01;3.90;99.90
34318;DHT22;20582;52.196;20.952;2023-01-19T18:51:27;3.70;99.90
34318;DHT22;20582;52.196;20.952;2023-01-19T18:53:53;4.40;99.90
34318;DHT22;20582;52.196;20.952;2023-01-19T18:58:47;3.70;99.90
34318;DHT22;20582;52.196;20.952;2023-01-19T19:01:23;3.70;99.90
34318;DHT22;20582;52.196;20.952;2023-01-19T19:03:49;3.90;99.90
34318;DHT22;20582;52.196;20.952;2023-01-19T19:06:16;3.90;99.90
34318;DHT22;20582;52.196;20.952;2023-01-19T19:08:43;3.70;99.90
34318;DHT22;20582;52.196;20.952;2023-01-19T19:11:09;3.70;99.90
34318;DHT22;20582;52.196;20.952;2023-01-19T19:13:35;3.60;99.90
34318;DHT22;20582;52.196;20.952;2023-01-19T19:16:05;3.60;99.90
34318;DHT22;20582;52.196;20.952;2023-01-19T19:18:33;3.60;99.90
34318;DHT22;20582;52.196;20.952;2023-01-19T19:21:03;3.70;99.90
34318;DHT22;20582;52.196;20.952;2023-01-19T19:23:29;3.60;99.90
34318;DHT22;20582;52.196;20.952;2023-01-19T19:28:26;3.70;99.90
34318;DHT22;20582;52.196;20.952;2023-01-19T19:33:39;3.70;99.90
34318;DHT22;20582;52.196;20.952;2023-01-19T19:36:06;3.60;99.90
34318;DHT22;20582;52.196;20.952;2023-01-19T19:38:33;3.60;99.90
34318;DHT22;20582;52.196;20.952;2023-01-19T19:41:12;3.60;99.90
34318;DHT22;20582;52.196;20.952;2023-01-19T19:43:39;3.60;99.90
34318;DHT22;20582;52.196;20.952;2023-01-19T19:46:08;3.50;99.90
34318;DHT22;20582;52.196;20.952;2023-01-19T19:48:35;3.60;99.90
34318;DHT22;20582;52.196;20.952;2023-01-19T19:53:55;3.50;99.90
34318;DHT22;20582;52.196;20.952;2023-01-19T19:58:48;3.60;99.90
34318;DHT22;20582;52.196;20.952;2023-01-19T20:01:17;3.60;99.90
34318;DHT22;20582;52.196;20.952;2023-01-19T20:03:43;3.70;99.90
34318;DHT22;20582;52.196;20.952;2023-01-19T20:08:37;3.60;99.90
34318;DHT22;20582;52.196;20.952;2023-01-19T20:11:08;3.50;99.90
34318;DHT22;20582;52.196;20.952;2023-01-19T20:13:35;3.60;99.90
34318;DHT22;20582;52.196;20.952;2023-01-19T20:20:55;3.30;99.90
34318;DHT22;20582;52.196;20.952;2023-01-19T20:23:21;3.20;99.90
34318;DHT22;20582;52.196;20.952;2023-01-19T20:25:46;4.20;99.90
34318;DHT22;20582;52.196;20.952;2023-01-19T20:30:38;3.30;99.90
34318;DHT22;20582;52.196;20.952;2023-01-19T20:40:21;3.40;99.90
34318;DHT22;20582;52.196;20.952;2023-01-19T21:02:15;3.10;99.90
34318;DHT22;20582;52.196;20.952;2023-01-19T21:16:52;3.10;99.90
34318;DHT22;20582;52.196;20.952;2023-01-19T23:19:06;2.00;99.90
34318;DHT22;20582;52.196;20.952;2023-01-19T23:21:32;1.90;99.90
